Gazi — 9HA2542 — position and weather

sailwx.info

Track history (hours):
 
Tides and Currents Weather Stations Pressure Air Temp Water Temp Dewpoint Dewpoint Depression Visibility Wind Speed Wind Dir Waves Ship Positions

Gazi

Last reported at 2016-Aug-25 01:32 UTC. Time now 2016-Aug-25 02:43 UTC.
Position N 44°06' E 039°04'.

Length 153 m; draft 5.8 m.

Type: Ship. MMSI: 248841000.

Date/timePositionNaut miles runAvg speedWind from/ knotsBaromVisibWave heightAir tempDewpointWater temp
2016-Aug-25 01:32N 44°06' E 039°04'0 0.0
2016-Aug-25 00:32N 44°06' E 039°04'0 0.0
2016-Aug-24 23:32N 44°06' E 039°04'0 0.0
2016-Aug-24 22:32N 44°06' E 039°04'0 0.0
2016-Aug-24 21:32N 44°06' E 039°04'0 0.0
2016-Aug-24 20:32N 44°06' E 039°04'0 0.0
2016-Aug-24 19:32N 44°06' E 039°04'0 0.0
2016-Aug-24 18:32N 44°06' E 039°04'0 0.0
2016-Aug-24 17:32N 44°06' E 039°04'0 0.0
2016-Aug-24 16:32N 44°06' E 039°04'0 0.0
2016-Aug-24 15:32N 44°06' E 039°04'0 0.0
2016-Aug-24 14:32N 44°06' E 039°04'0 0.0
2016-Aug-24 13:27N 44°06' E 039°04'0 0.0
2016-Aug-24 12:33N 44°06' E 039°04'0 0.0
2016-Aug-24 11:33N 44°06' E 039°04'0 0.0
2016-Aug-24 10:33N 44°06' E 039°04'0 0.0
2016-Aug-24 09:33N 44°06' E 039°04'0 0.0
2016-Aug-24 08:33N 44°06' E 039°04'0 0.0
2016-Aug-24 07:33N 44°06' E 039°04'0 0.0
2016-Aug-24 06:33N 44°06' E 039°04'0 0.0
2016-Aug-24 04:33N 44°06' E 039°04'0 0.0
2016-Aug-24 03:33N 44°06' E 039°04'0 0.0
2016-Aug-24 02:33N 44°06' E 039°04'0 0.0
2016-Aug-24 01:33N 44°06' E 039°04'0 0.0
2016-Aug-24 00:33N 44°06' E 039°04'0 0.0
2016-Aug-23 23:33N 44°06' E 039°04'0 0.0
2016-Aug-23 22:33N 44°06' E 039°04'0 0.0
2016-Aug-23 21:33N 44°06' E 039°04'0 0.0
2016-Aug-23 20:33N 44°06' E 039°04'0 0.0
2016-Aug-23 19:33N 44°06' E 039°04'0 0.0
2016-Aug-23 18:33N 44°06' E 039°04'0 0.0
2016-Aug-23 17:33N 44°06' E 039°04'0 0.0
2016-Aug-23 16:33N 44°06' E 039°04'0 0.0
2016-Aug-23 15:33N 44°06' E 039°04'0 0.0
2016-Aug-23 14:27N 44°06' E 039°04'0 0.0
2016-Aug-23 13:31N 44°06' E 039°04'0 0.0
2016-Aug-23 12:31N 44°06' E 039°04'0 0.0
2016-Aug-23 11:32N 44°06' E 039°04'0 0.0
2016-Aug-23 10:32N 44°06' E 039°04'0 0.0
2016-Aug-23 09:32N 44°06' E 039°04'0 0.0
2016-Aug-23 08:32N 44°06' E 039°04'0 0.0
2016-Aug-23 07:32N 44°06' E 039°04'0 0.0
2016-Aug-23 06:32N 44°06' E 039°04'0 0.0
2016-Aug-23 05:32N 44°06' E 039°04'0 0.0
2016-Aug-23 04:32N 44°06' E 039°04'0 0.0
2016-Aug-23 03:32N 44°06' E 039°04'0 0.0
2016-Aug-23 02:32N 44°06' E 039°04'0 0.0
2016-Aug-23 01:32N 44°06' E 039°04'0 0.0
2016-Aug-23 00:32N 44°06' E 039°04'0 0.0
2016-Aug-22 23:32N 44°06' E 039°04'0 0.0
2016-Aug-22 22:32N 44°06' E 039°04'0 0.0
2016-Aug-22 21:32N 44°06' E 039°04'0 0.0
2016-Aug-22 20:32N 44°06' E 039°04'0 0.0
2016-Aug-22 19:32N 44°06' E 039°04'0 0.0
2016-Aug-22 18:32N 44°06' E 039°04'0 0.0
2016-Aug-22 17:32N 44°06' E 039°04'0 0.0
2016-Aug-22 16:32N 44°06' E 039°04'0 0.0
2016-Aug-22 15:32N 44°06' E 039°04'0 0.0
2016-Aug-22 14:32N 44°06' E 039°04'0 0.0
2016-Aug-22 13:32N 44°06' E 039°04'0 0.0
2016-Aug-22 12:32N 44°06' E 039°04'0 0.0
2016-Aug-22 11:32N 44°06' E 039°04'0 0.2
2016-Aug-22 10:33N 44°05' E 039°04'3 3.5
2016-Aug-22 09:33N 44°02' E 039°03'7 7.3
2016-Aug-22 08:33N 43°58' E 038°55'1010.0
2016-Aug-22 07:34N 43°54' E 038°42'1212.2
2016-Aug-22 06:33N 43°50' E 038°26'1313.2
2016-Aug-22 05:33N 43°46' E 038°09'1313.1
2016-Aug-22 04:32N 43°41' E 037°52'42512.4
2016-Aug-20 18:16N 40°59' E 028°60'4 5.9
2016-Aug-20 17:33N 40°55' E 028°59'8 7.6
2016-Aug-20 16:32N 40°47' E 029°01'2 1.9
2016-Aug-20 15:33N 40°46' E 029°01'1 1.0
2016-Aug-20 14:31N 40°47' E 029°02'1 1.0
2016-Aug-20 13:33N 40°48' E 029°02'4 3.2
2016-Aug-20 12:20N 40°47' E 028°57'5 5.8
2016-Aug-20 11:33N 40°50' E 028°52'160 9.4
2016-Aug-19 18:33N 40°11' E 025°28'5 5.2
2016-Aug-19 17:33N 40°15' E 025°23'0 0.3
2016-Aug-19 16:33N 40°15' E 025°23'0 0.1
2016-Aug-19 15:33N 40°15' E 025°23'0 0.2
2016-Aug-19 13:17N 40°15' E 025°24'2 1.3
2016-Aug-19 11:21N 40°15' E 025°27'5 6.4
2016-Aug-19 10:33N 40°16' E 025°20'1110.9
2016-Aug-19 09:33N 40°17' E 025°06'1211.9
2016-Aug-19 08:33N 40°20' E 024°51'1111.3
2016-Aug-19 07:33N 40°22' E 024°36'3 2.7
2016-Aug-19 06:33N 40°22' E 024°33'2 1.5
2016-Aug-19 05:33N 40°22' E 024°35'2 1.6
2016-Aug-19 04:33N 40°23' E 024°37'2 1.9
2016-Aug-19 03:31N 40°23' E 024°39'2 2.3
2016-Aug-19 02:32N 40°24' E 024°42'2 2.3
2016-Aug-19 01:32N 40°25' E 024°45'2 2.3
2016-Aug-19 00:33N 40°26' E 024°47'2 2.1
2016-Aug-18 23:29N 40°27' E 024°50'2 1.8
2016-Aug-18 22:33N 40°27' E 024°52'1 1.4
2016-Aug-18 21:32N 40°27' E 024°54'1 1.5
2016-Aug-18 20:33N 40°27' E 024°56'1 1.3
2016-Aug-18 19:33N 40°26' E 024°57'1 1.1
2016-Aug-18 18:33N 40°25' E 024°58'1 0.7
2016-Aug-18 17:26N 40°25' E 024°59'1 0.6
2016-Aug-18 16:33N 40°24' E 024°60'0 0.4
2016-Aug-18 15:31N 40°24' E 025°00'1 0.6
2016-Aug-18 14:33N 40°24' E 025°00'1 0.7
2016-Aug-18 13:30N 40°23' E 025°01'1 1.0
2016-Aug-18 12:33N 40°22' E 025°02'1 1.3
2016-Aug-18 11:33N 40°22' E 025°03'2 1.5
2016-Aug-18 10:33N 40°20' E 025°04'2 1.7
2016-Aug-18 09:33N 40°19' E 025°06'2 1.8
2016-Aug-18 08:30N 40°19' E 025°08'10 2.4
2016-Aug-18 04:33N 40°17' E 025°21'1 0.8
2016-Aug-18 03:33N 40°16' E 025°20'10 9.1
2016-Aug-18 02:30N 40°10' E 025°11'2 1.1
2016-Aug-18 00:30N 40°09' E 025°08'1 0.6
2016-Aug-17 23:31N 40°10' E 025°08'1 0.6
2016-Aug-17 22:32N 40°10' E 025°08'1 0.6
2016-Aug-17 21:32N 40°11' E 025°09'2 0.5
2016-Aug-17 17:32N 40°13' E 025°09'0 0.3
2016-Aug-17 16:29N 40°13' E 025°09'0 0.2
2016-Aug-17 15:22N 40°13' E 025°09'0 0.2
2016-Aug-17 14:33N 40°13' E 025°09'0 0.0
2016-Aug-17 13:30N 40°13' E 025°09'0 0.1
2016-Aug-17 12:31N 40°13' E 025°09'0 0.1
2016-Aug-17 11:33N 40°13' E 025°09'0 0.4
2016-Aug-17 10:33N 40°13' E 025°09'0 0.5
2016-Aug-17 09:33N 40°13' E 025°10'1 0.6
2016-Aug-17 08:31N 40°13' E 025°11'1 0.7
2016-Aug-17 07:33N 40°14' E 025°12'4 3.6
2016-Aug-17 06:33N 40°13' E 025°07'10 9.9
2016-Aug-17 05:33N 40°06' E 024°57'1111.1
2016-Aug-17 04:33N 39°56' E 024°53'1211.7
2016-Aug-17 03:33N 39°44' E 024°50'1212.4
2016-Aug-17 02:33N 39°32' E 024°47'1212.0
2016-Aug-17 01:33N 39°20' E 024°50'  
Track history (hours):
 
Tides and Currents Weather Stations Pressure Air Temp Water Temp Dewpoint Dewpoint Depression Visibility Wind Speed Wind Dir Waves Ship Positions

Gazi

Last reported at 2016-Aug-25 01:32 UTC. Time now 2016-Aug-25 02:43 UTC.
Position N 44°06' E 039°04'.

Length 153 m; draft 5.8 m.

Type: Ship. MMSI: 248841000.

Date/timePositionNaut miles runAvg speedWind from/ knotsBaromVisibWave heightAir tempDewpointWater temp
2016-Aug-25 01:32N 44°06' E 039°04'0 0.0
2016-Aug-25 00:32N 44°06' E 039°04'0 0.0
2016-Aug-24 23:32N 44°06' E 039°04'0 0.0
2016-Aug-24 22:32N 44°06' E 039°04'0 0.0
2016-Aug-24 21:32N 44°06' E 039°04'0 0.0
2016-Aug-24 20:32N 44°06' E 039°04'0 0.0
2016-Aug-24 19:32N 44°06' E 039°04'0 0.0
2016-Aug-24 18:32N 44°06' E 039°04'0 0.0
2016-Aug-24 17:32N 44°06' E 039°04'0 0.0
2016-Aug-24 16:32N 44°06' E 039°04'0 0.0
2016-Aug-24 15:32N 44°06' E 039°04'0 0.0
2016-Aug-24 14:32N 44°06' E 039°04'0 0.0
2016-Aug-24 13:27N 44°06' E 039°04'0 0.0
2016-Aug-24 12:33N 44°06' E 039°04'0 0.0
2016-Aug-24 11:33N 44°06' E 039°04'0 0.0
2016-Aug-24 10:33N 44°06' E 039°04'0 0.0
2016-Aug-24 09:33N 44°06' E 039°04'0 0.0
2016-Aug-24 08:33N 44°06' E 039°04'0 0.0
2016-Aug-24 07:33N 44°06' E 039°04'0 0.0
2016-Aug-24 06:33N 44°06' E 039°04'0 0.0
2016-Aug-24 04:33N 44°06' E 039°04'0 0.0
2016-Aug-24 03:33N 44°06' E 039°04'0 0.0
2016-Aug-24 02:33N 44°06' E 039°04'0 0.0
2016-Aug-24 01:33N 44°06' E 039°04'0 0.0
2016-Aug-24 00:33N 44°06' E 039°04'0 0.0
2016-Aug-23 23:33N 44°06' E 039°04'0 0.0
2016-Aug-23 22:33N 44°06' E 039°04'0 0.0
2016-Aug-23 21:33N 44°06' E 039°04'0 0.0
2016-Aug-23 20:33N 44°06' E 039°04'0 0.0
2016-Aug-23 19:33N 44°06' E 039°04'0 0.0
2016-Aug-23 18:33N 44°06' E 039°04'0 0.0
2016-Aug-23 17:33N 44°06' E 039°04'0 0.0
2016-Aug-23 16:33N 44°06' E 039°04'0 0.0
2016-Aug-23 15:33N 44°06' E 039°04'0 0.0
2016-Aug-23 14:27N 44°06' E 039°04'0 0.0
2016-Aug-23 13:31N 44°06' E 039°04'0 0.0
2016-Aug-23 12:31N 44°06' E 039°04'0 0.0
2016-Aug-23 11:32N 44°06' E 039°04'0 0.0
2016-Aug-23 10:32N 44°06' E 039°04'0 0.0
2016-Aug-23 09:32N 44°06' E 039°04'0 0.0
2016-Aug-23 08:32N 44°06' E 039°04'0 0.0
2016-Aug-23 07:32N 44°06' E 039°04'0 0.0
2016-Aug-23 06:32N 44°06' E 039°04'0 0.0
2016-Aug-23 05:32N 44°06' E 039°04'0 0.0
2016-Aug-23 04:32N 44°06' E 039°04'0 0.0
2016-Aug-23 03:32N 44°06' E 039°04'0 0.0
2016-Aug-23 02:32N 44°06' E 039°04'0 0.0
2016-Aug-23 01:32N 44°06' E 039°04'0 0.0
2016-Aug-23 00:32N 44°06' E 039°04'0 0.0
2016-Aug-22 23:32N 44°06' E 039°04'0 0.0
2016-Aug-22 22:32N 44°06' E 039°04'0 0.0
2016-Aug-22 21:32N 44°06' E 039°04'0 0.0
2016-Aug-22 20:32N 44°06' E 039°04'0 0.0
2016-Aug-22 19:32N 44°06' E 039°04'0 0.0
2016-Aug-22 18:32N 44°06' E 039°04'0 0.0
2016-Aug-22 17:32N 44°06' E 039°04'0 0.0
2016-Aug-22 16:32N 44°06' E 039°04'0 0.0
2016-Aug-22 15:32N 44°06' E 039°04'0 0.0
2016-Aug-22 14:32N 44°06' E 039°04'0 0.0
2016-Aug-22 13:32N 44°06' E 039°04'0 0.0
2016-Aug-22 12:32N 44°06' E 039°04'0 0.0
2016-Aug-22 11:32N 44°06' E 039°04'0 0.2
2016-Aug-22 10:33N 44°05' E 039°04'3 3.5
2016-Aug-22 09:33N 44°02' E 039°03'7 7.3
2016-Aug-22 08:33N 43°58' E 038°55'1010.0
2016-Aug-22 07:34N 43°54' E 038°42'1212.2
2016-Aug-22 06:33N 43°50' E 038°26'1313.2
2016-Aug-22 05:33N 43°46' E 038°09'1313.1
2016-Aug-22 04:32N 43°41' E 037°52'42512.4
2016-Aug-20 18:16N 40°59' E 028°60'4 5.9
2016-Aug-20 17:33N 40°55' E 028°59'8 7.6
2016-Aug-20 16:32N 40°47' E 029°01'2 1.9
2016-Aug-20 15:33N 40°46' E 029°01'1 1.0
2016-Aug-20 14:31N 40°47' E 029°02'1 1.0
2016-Aug-20 13:33N 40°48' E 029°02'4 3.2
2016-Aug-20 12:20N 40°47' E 028°57'5 5.8
2016-Aug-20 11:33N 40°50' E 028°52'160 9.4
2016-Aug-19 18:33N 40°11' E 025°28'5 5.2
2016-Aug-19 17:33N 40°15' E 025°23'0 0.3
2016-Aug-19 16:33N 40°15' E 025°23'0 0.1
2016-Aug-19 15:33N 40°15' E 025°23'0 0.2
2016-Aug-19 13:17N 40°15' E 025°24'2 1.3
2016-Aug-19 11:21N 40°15' E 025°27'5 6.4
2016-Aug-19 10:33N 40°16' E 025°20'1110.9
2016-Aug-19 09:33N 40°17' E 025°06'1211.9
2016-Aug-19 08:33N 40°20' E 024°51'1111.3
2016-Aug-19 07:33N 40°22' E 024°36'3 2.7
2016-Aug-19 06:33N 40°22' E 024°33'2 1.5
2016-Aug-19 05:33N 40°22' E 024°35'2 1.6
2016-Aug-19 04:33N 40°23' E 024°37'2 1.9
2016-Aug-19 03:31N 40°23' E 024°39'2 2.3
2016-Aug-19 02:32N 40°24' E 024°42'2 2.3
2016-Aug-19 01:32N 40°25' E 024°45'2 2.3
2016-Aug-19 00:33N 40°26' E 024°47'2 2.1
2016-Aug-18 23:29N 40°27' E 024°50'2 1.8
2016-Aug-18 22:33N 40°27' E 024°52'1 1.4
2016-Aug-18 21:32N 40°27' E 024°54'1 1.5
2016-Aug-18 20:33N 40°27' E 024°56'1 1.3
2016-Aug-18 19:33N 40°26' E 024°57'1 1.1
2016-Aug-18 18:33N 40°25' E 024°58'1 0.7
2016-Aug-18 17:26N 40°25' E 024°59'1 0.6
2016-Aug-18 16:33N 40°24' E 024°60'0 0.4
2016-Aug-18 15:31N 40°24' E 025°00'1 0.6
2016-Aug-18 14:33N 40°24' E 025°00'1 0.7
2016-Aug-18 13:30N 40°23' E 025°01'1 1.0
2016-Aug-18 12:33N 40°22' E 025°02'1 1.3
2016-Aug-18 11:33N 40°22' E 025°03'2 1.5
2016-Aug-18 10:33N 40°20' E 025°04'2 1.7
2016-Aug-18 09:33N 40°19' E 025°06'2 1.8
2016-Aug-18 08:30N 40°19' E 025°08'10 2.4
2016-Aug-18 04:33N 40°17' E 025°21'1 0.8
2016-Aug-18 03:33N 40°16' E 025°20'10 9.1
2016-Aug-18 02:30N 40°10' E 025°11'2 1.1
2016-Aug-18 00:30N 40°09' E 025°08'1 0.6
2016-Aug-17 23:31N 40°10' E 025°08'1 0.6
2016-Aug-17 22:32N 40°10' E 025°08'1 0.6
2016-Aug-17 21:32N 40°11' E 025°09'2 0.5
2016-Aug-17 17:32N 40°13' E 025°09'0 0.3
2016-Aug-17 16:29N 40°13' E 025°09'0 0.2
2016-Aug-17 15:22N 40°13' E 025°09'0 0.2
2016-Aug-17 14:33N 40°13' E 025°09'0 0.0
2016-Aug-17 13:30N 40°13' E 025°09'0 0.1
2016-Aug-17 12:31N 40°13' E 025°09'0 0.1
2016-Aug-17 11:33N 40°13' E 025°09'0 0.4
2016-Aug-17 10:33N 40°13' E 025°09'0 0.5
2016-Aug-17 09:33N 40°13' E 025°10'1 0.6
2016-Aug-17 08:31N 40°13' E 025°11'1 0.7
2016-Aug-17 07:33N 40°14' E 025°12'4 3.6
2016-Aug-17 06:33N 40°13' E 025°07'10 9.9
2016-Aug-17 05:33N 40°06' E 024°57'1111.1
2016-Aug-17 04:33N 39°56' E 024°53'1211.7
2016-Aug-17 03:33N 39°44' E 024°50'1212.4
2016-Aug-17 02:33N 39°32' E 024°47'1212.0
2016-Aug-17 01:33N 39°20' E 024°50'  

Dump ship's entire track history